createdAt,value
2023-02-07T00:00:18.139Z,55.60
2023-02-07T00:05:19.702Z,55.97
2023-02-07T00:10:21.577Z,55.70
2023-02-07T00:15:23.246Z,55.49
2023-02-07T00:20:25.293Z,55.42
2023-02-07T00:25:27.433Z,55.78
2023-02-07T00:30:29.099Z,55.42
2023-02-07T00:35:30.754Z,55.30
2023-02-07T00:40:32.554Z,55.65
2023-02-07T00:45:34.172Z,55.74
2023-02-07T00:50:35.831Z,54.75
2023-02-07T00:55:37.713Z,55.56
2023-02-07T01:00:39.703Z,55.25
2023-02-07T01:05:41.911Z,54.92
2023-02-07T01:10:45.242Z,55.16
2023-02-07T01:15:48.820Z,55.38
2023-02-07T01:20:50.678Z,55.08
2023-02-07T01:25:52.255Z,54.90
2023-02-07T01:30:53.908Z,55.07
2023-02-07T01:35:55.547Z,55.19
2023-02-07T01:40:57.132Z,55.63
2023-02-07T01:45:58.806Z,55.69
2023-02-07T01:51:04.977Z,55.95
2023-02-07T01:56:09.301Z,56.32
2023-02-07T02:01:18.969Z,56.92
2023-02-07T02:06:23.444Z,56.61
2023-02-07T02:11:50.566Z,55.53
2023-02-07T02:16:57.997Z,56.09
2023-02-07T02:22:56.322Z,55.79
2023-02-07T02:28:20.087Z,55.85
2023-02-07T02:33:43.458Z,56.20
2023-02-07T02:39:07.809Z,56.56
2023-02-07T02:44:18.558Z,56.90
2023-02-07T02:49:21.936Z,57.13
2023-02-07T02:54:37.134Z,57.42
2023-02-07T02:59:41.286Z,57.56
2023-02-07T03:05:07.388Z,58.20
2023-02-07T03:10:50.721Z,57.90
2023-02-07T03:16:18.099Z,58.28
2023-02-07T03:22:05.781Z,57.36
2023-02-07T03:27:11.317Z,57.68
2023-02-07T03:32:15.162Z,57.89
2023-02-07T03:37:25.140Z,58.27
2023-02-07T03:42:33.510Z,58.68
2023-02-07T03:47:35.106Z,58.86
2023-02-07T03:52:36.752Z,59.24
2023-02-07T03:57:38.694Z,59.31
2023-02-07T04:02:40.895Z,59.45
2023-02-07T04:07:42.774Z,59.70
2023-02-07T04:12:44.437Z,59.50
2023-02-07T04:17:46.014Z,59.67
2023-02-07T04:22:47.633Z,60.38
2023-02-07T04:27:49.230Z,60.62
2023-02-07T04:32:50.864Z,60.40
2023-02-07T04:37:52.458Z,60.55
2023-02-07T04:42:54.061Z,60.96
2023-02-07T04:47:55.630Z,61.00
2023-02-07T04:52:57.273Z,60.82
2023-02-07T04:57:58.877Z,61.37
2023-02-07T05:03:01.177Z,61.54
2023-02-07T05:08:02.791Z,61.66
2023-02-07T05:13:05.228Z,61.92
2023-02-07T05:18:07.116Z,62.16
2023-02-07T05:23:08.817Z,62.39
2023-02-07T05:28:10.719Z,62.61
2023-02-07T05:33:12.421Z,62.55
2023-02-07T05:38:16.391Z,62.44
2023-02-07T05:43:18.066Z,62.79
2023-02-07T05:48:19.668Z,62.91
2023-02-07T05:53:21.244Z,62.84
2023-02-07T05:58:22.825Z,62.75
2023-02-07T06:03:24.447Z,62.82
2023-02-07T06:08:26.049Z,63.04
2023-02-07T06:13:27.645Z,63.10
2023-02-07T06:18:29.228Z,63.15
2023-02-07T06:23:30.826Z,63.07
2023-02-07T06:28:32.423Z,63.33
2023-02-07T06:33:34.046Z,63.43
2023-02-07T06:38:35.619Z,63.55
2023-02-07T06:43:38.857Z,63.81
2023-02-07T06:48:40.767Z,63.93
2023-02-07T06:53:42.430Z,64.08
2023-02-07T06:58:44.019Z,64.27
2023-02-07T07:03:47.081Z,64.08
2023-02-07T07:08:49.910Z,64.08
2023-02-07T07:13:51.547Z,64.28
2023-02-07T07:18:53.154Z,64.41
2023-02-07T07:23:55.588Z,64.30
2023-02-07T07:29:00.168Z,64.13
2023-02-07T07:34:01.779Z,63.85
2023-02-07T07:39:04.170Z,63.69
2023-02-07T07:44:06.003Z,63.50
2023-02-07T07:49:07.598Z,63.38
2023-02-07T07:54:09.206Z,62.36
2023-02-07T07:59:20.073Z,61.20
2023-02-07T08:04:24.931Z,59.66
2023-02-07T08:09:26.553Z,59.76
2023-02-07T08:14:28.146Z,59.07
2023-02-07T08:19:29.761Z,59.56
2023-02-07T08:24:31.405Z,59.19
2023-02-07T08:29:33.021Z,58.93
2023-02-07T08:34:37.697Z,58.64
2023-02-07T08:39:39.350Z,58.15
2023-02-07T08:44:40.956Z,57.99
2023-02-07T08:49:42.765Z,57.29
2023-02-07T08:54:44.349Z,56.07
2023-02-07T08:59:45.960Z,56.34
2023-02-07T09:04:47.749Z,55.92
2023-02-07T09:09:49.351Z,55.89
2023-02-07T09:14:50.906Z,55.42
2023-02-07T09:19:52.497Z,55.22
2023-02-07T09:24:54.107Z,54.78
2023-02-07T09:29:55.739Z,55.04
2023-02-07T09:34:58.442Z,54.81
2023-02-07T09:40:00.131Z,54.94
2023-02-07T09:45:12.252Z,54.23
2023-02-07T09:50:20.821Z,54.68
2023-02-07T09:55:26.929Z,54.44
2023-02-07T10:00:31.668Z,54.37
2023-02-07T10:05:42.138Z,54.17
2023-02-07T10:11:25.024Z,53.72
2023-02-07T10:17:01.528Z,52.45
2023-02-07T10:22:21.434Z,52.97
2023-02-07T10:27:32.025Z,51.92
2023-02-07T10:32:38.261Z,52.80
2023-02-07T10:37:40.027Z,52.08
2023-02-07T10:42:43.926Z,52.04
2023-02-07T10:47:45.729Z,51.48
2023-02-07T10:52:52.825Z,49.64
2023-02-07T10:58:01.459Z,51.24
2023-02-07T11:03:14.249Z,49.89
2023-02-07T11:08:15.811Z,50.27
2023-02-07T11:13:20.398Z,49.72
2023-02-07T11:18:45.600Z,48.56
2023-02-07T11:23:49.529Z,49.49
2023-02-07T11:28:54.070Z,49.21
2023-02-07T11:34:11.473Z,48.23
2023-02-07T11:39:18.332Z,48.15
2023-02-07T11:44:23.788Z,47.75
2023-02-07T11:49:43.085Z,45.29
2023-02-07T11:54:51.975Z,46.78
2023-02-07T12:00:06.723Z,45.37
2023-02-07T12:05:18.172Z,44.79
2023-02-07T12:10:34.789Z,44.16
2023-02-07T12:16:00.490Z,43.94
2023-02-07T12:21:14.335Z,44.98
2023-02-07T12:26:33.545Z,42.33
2023-02-07T12:31:38.024Z,43.46
2023-02-07T12:36:46.252Z,43.46
2023-02-07T12:41:56.004Z,42.95
2023-02-07T12:47:22.033Z,42.00
2023-02-07T12:52:45.478Z,43.02
2023-02-07T12:58:08.859Z,42.77
2023-02-07T13:03:32.177Z,41.19
2023-02-07T13:08:48.351Z,42.14
2023-02-07T13:13:55.920Z,39.75
2023-02-07T13:19:11.430Z,39.78
2023-02-07T13:24:17.030Z,39.92
2023-02-07T13:29:20.381Z,40.91
2023-02-07T13:34:26.554Z,38.05
2023-02-07T13:40:20.041Z,38.70
2023-02-07T13:45:48.339Z,38.95
2023-02-07T13:51:04.896Z,38.28
2023-02-07T13:56:33.870Z,38.84
2023-02-07T14:01:36.945Z,39.07
2023-02-07T14:06:55.124Z,36.69
2023-02-07T14:12:20.155Z,37.06
2023-02-07T14:17:27.770Z,38.77
2023-02-07T14:22:52.085Z,36.94
2023-02-07T14:27:53.654Z,38.74
2023-02-07T14:33:15.312Z,37.10
2023-02-07T14:38:27.559Z,37.83
2023-02-07T14:44:08.472Z,38.01
2023-02-07T14:49:35.502Z,36.83
2023-02-07T14:54:46.196Z,38.28
2023-02-07T15:00:12.519Z,38.08
2023-02-07T15:05:14.098Z,37.86
2023-02-07T15:10:27.679Z,37.16
2023-02-07T15:15:48.288Z,37.13
2023-02-07T15:20:58.157Z,38.47
2023-02-07T15:26:06.067Z,38.23
2023-02-07T15:31:16.399Z,37.92
2023-02-07T15:36:46.023Z,38.39
2023-02-07T15:41:49.736Z,39.02
2023-02-07T15:46:58.943Z,39.02
2023-02-07T15:52:26.718Z,38.48
2023-02-07T15:57:40.577Z,39.58
2023-02-07T16:02:48.213Z,39.47
2023-02-07T16:07:50.258Z,39.52
2023-02-07T16:12:59.503Z,39.70
2023-02-07T16:18:03.066Z,40.68
2023-02-07T16:23:10.011Z,41.47
2023-02-07T16:28:15.878Z,41.70
2023-02-07T16:33:17.547Z,42.27
2023-02-07T16:38:19.144Z,43.04
2023-02-07T16:43:37.393Z,41.68
2023-02-07T16:48:39.061Z,42.66
2023-02-07T16:53:40.643Z,42.08
2023-02-07T16:58:42.349Z,44.78
2023-02-07T17:03:44.280Z,45.43
2023-02-07T17:08:46.654Z,44.28
2023-02-07T17:13:48.289Z,44.34
2023-02-07T17:18:50.052Z,44.60
2023-02-07T17:23:51.918Z,45.58
2023-02-07T17:28:55.152Z,45.52
2023-02-07T17:33:56.750Z,45.77
2023-02-07T17:38:59.359Z,46.68
2023-02-07T17:44:01.146Z,47.53
2023-02-07T17:49:03.263Z,48.31
2023-02-07T17:54:04.919Z,50.11
2023-02-07T17:59:07.979Z,49.53
2023-02-07T18:04:09.617Z,49.88
2023-02-07T18:09:18.809Z,50.33
2023-02-07T18:14:20.523Z,50.20
2023-02-07T18:19:22.568Z,49.68
2023-02-07T18:24:24.093Z,49.47
2023-02-07T18:29:25.696Z,50.00
2023-02-07T18:34:27.323Z,50.66
2023-02-07T18:39:28.902Z,51.18
2023-02-07T18:44:30.513Z,51.06
2023-02-07T18:49:34.071Z,51.50
2023-02-07T18:54:36.462Z,51.91
2023-02-07T18:59:38.772Z,53.04
2023-02-07T19:04:41.708Z,53.19
2023-02-07T19:09:43.440Z,53.45
2023-02-07T19:14:45.056Z,53.91
2023-02-07T19:19:46.665Z,53.97
2023-02-07T19:24:48.300Z,54.41
2023-02-07T19:29:49.996Z,54.69
2023-02-07T19:34:51.646Z,54.98
2023-02-07T19:39:56.261Z,54.95
2023-02-07T19:44:57.904Z,55.10
2023-02-07T19:49:59.513Z,55.56
2023-02-07T19:55:01.125Z,55.73
2023-02-07T20:00:05.308Z,55.70
2023-02-07T20:05:08.059Z,56.08
2023-02-07T20:10:10.784Z,56.14
2023-02-07T20:15:12.597Z,56.36
2023-02-07T20:20:15.267Z,56.67
2023-02-07T20:25:17.060Z,56.88
2023-02-07T20:30:18.795Z,56.89
2023-02-07T20:35:20.564Z,57.17
2023-02-07T20:40:22.602Z,57.15
2023-02-07T20:45:24.313Z,57.51
2023-02-07T20:50:25.926Z,57.50
2023-02-07T20:55:27.615Z,57.47
2023-02-07T21:00:29.240Z,57.83
2023-02-07T21:05:30.842Z,58.09
2023-02-07T21:10:32.413Z,58.26
2023-02-07T21:15:34.017Z,58.33
2023-02-07T21:20:38.220Z,58.50
2023-02-07T21:25:40.097Z,58.68
2023-02-07T21:30:42.232Z,58.89
2023-02-07T21:35:44.171Z,58.96
2023-02-07T21:40:45.747Z,59.08
2023-02-07T21:45:47.458Z,59.21
2023-02-07T21:50:49.147Z,59.46
2023-02-07T21:55:50.799Z,59.53
2023-02-07T22:00:52.936Z,59.42
2023-02-07T22:05:54.590Z,59.66
2023-02-07T22:10:56.229Z,59.70
2023-02-07T22:15:58.230Z,59.79
2023-02-07T22:21:04.588Z,60.07
2023-02-07T22:26:06.944Z,59.93
2023-02-07T22:31:29.678Z,60.07
2023-02-07T22:36:33.708Z,60.30
2023-02-07T22:41:36.225Z,60.18
2023-02-07T22:46:38.382Z,60.32
2023-02-07T22:51:39.980Z,60.24
2023-02-07T22:56:41.586Z,60.39
2023-02-07T23:01:44.270Z,60.29
2023-02-07T23:06:46.575Z,60.67
2023-02-07T23:11:48.713Z,60.91
2023-02-07T23:16:50.318Z,60.81
2023-02-07T23:21:52.097Z,61.00
2023-02-07T23:26:53.934Z,61.10
2023-02-07T23:31:55.593Z,61.03
2023-02-07T23:36:57.239Z,61.11
2023-02-07T23:41:58.947Z,61.28
2023-02-07T23:47:00.554Z,61.51
2023-02-07T23:52:02.272Z,61.31
2023-02-07T23:57:04.622Z,61.44
